»·PEaware :: N4836E KBFL-KWJF

N4836E :: KBFL-KWJF

FLIGHT INFORMATION

Flight Status: Arrived
Operator: Privately registered:
United States
More flights under this callsign
Pilot: Andrew T. (832)
Aircraft: PIPER PA-28R-201 ARROW
(P28R)
More flights by this aircraft type
Origin: KBFL Meadows
United States
Destination: KWJF Gen Fox
United States
More flights between these airports :: More routes between these airports
Route: +MEADO3 PMD
File this flight plan on PilotEdge
Remarks: / G
Altitude:
(Current/Filed)
7,000ft
Speed:
(Current/Filed)
130kts
Departed: 07-Oct-18 01:19 PM
Arrived: 07-Oct-18 01:59 PM
Distance/Time
Traveled:
59nm/0:40
Distance/Time
To Go:
Arrived

Flight Plot

Page will automatically refresh every two minutes.

Flight plan parsing failed; only flown route is shown


Map Options




Map Legend


Flown Route
Filed Route
Departure Airport
Arrival Airport
Navaid (VOR, NDB)
Fix

Horizontal Profiles

Position Reports

Time Latitude Longitude Heading Altitude Ground
Speed
07-Oct-18 12:43 35.435709 -119.052044 180 503ft 0kts
07-Oct-18 12:44 35.435709 -119.052044 180 503ft 0kts
07-Oct-18 12:45 35.435709 -119.052044 180 503ft 0kts
07-Oct-18 12:46 35.435709 -119.052044 180 503ft 0kts
07-Oct-18 12:47 35.435709 -119.052044 180 503ft 0kts
07-Oct-18 12:48 35.435709 -119.052044 180 503ft 0kts
07-Oct-18 12:49 35.435709 -119.052044 180 503ft 0kts
07-Oct-18 12:50 35.435709 -119.052044 180 503ft 0kts
07-Oct-18 12:51 35.435709 -119.052044 180 503ft 0kts
07-Oct-18 12:52 35.435709 -119.052044 180 503ft 0kts
07-Oct-18 12:53 35.435709 -119.052044 180 503ft 0kts
07-Oct-18 12:54 35.435709 -119.052044 180 503ft 0kts
07-Oct-18 12:55 35.435709 -119.052044 180 503ft 0kts
07-Oct-18 12:56 35.435709 -119.052044 180 503ft 0kts
07-Oct-18 12:57 35.435709 -119.052044 180 503ft 0kts
07-Oct-18 12:58 35.435709 -119.052044 180 503ft 0kts
07-Oct-18 12:59 35.435709 -119.052044 180 503ft 0kts
07-Oct-18 13:00 35.435709 -119.052044 180 503ft 0kts
07-Oct-18 13:01 35.435709 -119.052044 180 503ft 0kts
07-Oct-18 13:02 35.435709 -119.052044 180 503ft 0kts
07-Oct-18 13:03 35.435709 -119.052044 180 503ft 0kts
07-Oct-18 13:04 35.435709 -119.052044 180 503ft 0kts
07-Oct-18 13:05 35.435709 -119.052044 180 503ft 0kts
07-Oct-18 13:06 35.435709 -119.052044 180 503ft 0kts
07-Oct-18 13:07 35.435709 -119.052044 180 503ft 0kts
07-Oct-18 13:08 35.435709 -119.052044 180 503ft 0kts
07-Oct-18 13:09 35.435709 -119.052044 180 503ft 0kts
07-Oct-18 13:10 35.435709 -119.052044 180 503ft 0kts
07-Oct-18 13:11 35.435709 -119.052044 180 503ft 0kts
07-Oct-18 13:12 35.435709 -119.052044 180 503ft 0kts
07-Oct-18 13:13 35.435709 -119.052044 180 503ft 0kts
07-Oct-18 13:14 35.435709 -119.052044 180 503ft 0kts
07-Oct-18 13:15 35.435753 -119.053015 220 501ft 9kts
07-Oct-18 13:16 35.432995 -119.052935 135 492ft 12kts
07-Oct-18 13:17 35.430541 -119.049959 136 490ft 13kts
07-Oct-18 13:18 35.427814 -119.046685 133 485ft 14kts
07-Oct-18 13:19 35.425694 -119.044765 228 478ft 0kts
07-Oct-18 13:20 35.425501 -119.045749 277 476ft 12kts
07-Oct-18 13:21 35.434573 -119.057739 309 791ft 95kts
07-Oct-18 13:22 35.453372 -119.081121 314 1913ft 98kts
07-Oct-18 13:23 35.470014 -119.101116 314 2910ft 96kts
07-Oct-18 13:24 35.458590 -119.116114 172 3973ft 101kts
07-Oct-18 13:25 35.426450 -119.111093 172 4589ft 125kts
07-Oct-18 13:26 35.391070 -119.105861 172 5192ft 129kts
07-Oct-18 13:27 35.355150 -119.100868 172 5794ft 131kts
07-Oct-18 13:28 35.318702 -119.095976 172 6398ft 132kts
07-Oct-18 13:29 35.282586 -119.089622 144 7000ft 130kts
07-Oct-18 13:30 35.259472 -119.056933 120 7611ft 127kts
07-Oct-18 13:31 35.238078 -119.022675 121 8218ft 126kts
07-Oct-18 13:32 35.217419 -118.987985 118 8793ft 128kts
07-Oct-18 13:33 35.195621 -118.950913 118 9024ft 146kts
07-Oct-18 13:34 35.172219 -118.909635 118 9005ft 145kts
07-Oct-18 13:35 35.146795 -118.871500 123 9013ft 144kts
07-Oct-18 13:36 35.121601 -118.832822 123 9023ft 148kts
07-Oct-18 13:37 35.096190 -118.792103 122 9036ft 152kts
07-Oct-18 13:38 35.071376 -118.749707 121 9047ft 154kts
07-Oct-18 13:39 35.046692 -118.706653 121 9055ft 155kts
07-Oct-18 13:40 35.022226 -118.663202 121 9040ft 156kts
07-Oct-18 13:41 34.996269 -118.621015 129 9039ft 156kts
07-Oct-18 13:42 34.963624 -118.588790 170 9011ft 156kts
07-Oct-18 13:43 34.921502 -118.594860 192 9011ft 153kts
07-Oct-18 13:44 34.880430 -118.603795 192 9007ft 153kts
07-Oct-18 13:45 34.838626 -118.612786 192 9003ft 152kts
07-Oct-18 13:46 34.797043 -118.621198 192 8998ft 150kts
07-Oct-18 13:47 34.754372 -118.629509 192 8608ft 162kts
07-Oct-18 13:48 34.709693 -118.637864 192 8009ft 161kts
07-Oct-18 13:49 34.665886 -118.644465 171 7403ft 162kts
07-Oct-18 13:50 34.656675 -118.596609 81 6782ft 151kts
07-Oct-18 13:51 34.659788 -118.551315 78 6779ft 128kts
07-Oct-18 13:52 34.667084 -118.509136 78 6782ft 127kts
07-Oct-18 13:53 34.673980 -118.467130 69 6781ft 122kts
07-Oct-18 13:54 34.686257 -118.431928 73 6265ft 114kts
07-Oct-18 13:55 34.694384 -118.392473 74 5595ft 125kts
07-Oct-18 13:56 34.706429 -118.350828 74 4486ft 134kts
07-Oct-18 13:57 34.716555 -118.310429 67 3621ft 127kts
07-Oct-18 13:58 34.726349 -118.273986 78 3022ft 93kts
07-Oct-18 13:59 34.733661 -118.246681 76 2670ft 79kts
07-Oct-18 14:00 34.739446 -118.224089 105 2345ft 45kts
07-Oct-18 14:01 34.740299 -118.218142 154 2342ft 0kts

Navigation Log

Ident Type
Flight plan parsing failed, navigation log unavailable